createdAt,value
2023-06-11T00:00:10.596Z,5.65
2023-06-11T00:02:43.013Z,5.40
2023-06-11T00:05:12.143Z,5.80
2023-06-11T00:07:42.074Z,5.90
2023-06-11T00:10:10.980Z,6.00
2023-06-11T00:12:39.149Z,5.60
2023-06-11T00:15:08.647Z,5.50
2023-06-11T00:17:38.142Z,5.75
2023-06-11T00:20:12.692Z,5.63
2023-06-11T00:22:43.472Z,6.38
2023-06-11T00:25:13.051Z,5.70
2023-06-11T00:27:41.517Z,6.45
2023-06-11T00:30:09.981Z,6.50
2023-06-11T00:32:38.202Z,5.95
2023-06-11T00:35:10.245Z,6.55
2023-06-11T00:37:39.192Z,5.67
2023-06-11T00:40:10.839Z,5.90
2023-06-11T00:42:39.312Z,6.28
2023-06-11T00:45:09.936Z,5.38
2023-06-11T00:47:40.352Z,5.75
2023-06-11T00:50:10.329Z,5.88
2023-06-11T00:52:38.454Z,5.90
2023-06-11T00:55:09.439Z,5.68
2023-06-11T00:57:41.436Z,5.75
2023-06-11T01:00:13.661Z,5.55
2023-06-11T01:02:48.609Z,5.68
2023-06-11T01:05:19.278Z,5.88
2023-06-11T01:07:51.670Z,6.07
2023-06-11T01:10:22.518Z,5.70
2023-06-11T01:12:50.954Z,5.40
2023-06-11T01:15:19.070Z,5.70
2023-06-11T01:17:53.911Z,5.75
2023-06-11T01:20:35.912Z,5.57
2023-06-11T01:23:21.863Z,5.70
2023-06-11T01:26:07.946Z,5.93
2023-06-11T01:28:39.467Z,5.97
2023-06-11T01:31:13.555Z,5.93
2023-06-11T01:33:42.165Z,6.07
2023-06-11T01:36:11.924Z,6.45
2023-06-11T01:38:43.760Z,6.30
2023-06-11T01:41:13.904Z,5.78
2023-06-11T01:43:43.420Z,5.70
2023-06-11T01:46:11.657Z,5.97
2023-06-11T01:48:39.795Z,5.72
2023-06-11T01:51:08.179Z,5.70
2023-06-11T01:53:36.526Z,5.95
2023-06-11T01:56:04.748Z,5.93
2023-06-11T01:58:34.056Z,6.20
2023-06-11T02:01:03.646Z,5.68
2023-06-11T02:03:31.938Z,5.80
2023-06-11T02:06:00.171Z,5.55
2023-06-11T02:08:28.406Z,5.93
2023-06-11T02:10:56.793Z,6.00
2023-06-11T02:13:26.752Z,5.65
2023-06-11T02:15:54.878Z,6.35
2023-06-11T02:18:24.349Z,6.85
2023-06-11T02:20:52.447Z,6.43
2023-06-11T02:23:20.833Z,6.60
2023-06-11T02:25:48.931Z,6.40
2023-06-11T02:28:18.315Z,6.57
2023-06-11T02:30:46.656Z,6.53
2023-06-11T02:33:14.921Z,6.93
2023-06-11T02:35:44.608Z,6.50
2023-06-11T02:38:12.737Z,6.22
2023-06-11T02:40:40.892Z,6.15
2023-06-11T02:43:08.976Z,6.55
2023-06-11T02:45:37.215Z,6.57
2023-06-11T02:48:05.682Z,6.20
2023-06-11T02:50:33.803Z,6.50
2023-06-11T02:53:03.332Z,6.75
2023-06-11T02:55:31.470Z,6.80
2023-06-11T02:57:59.601Z,6.35
2023-06-11T03:00:27.883Z,6.90
2023-06-11T03:02:56.013Z,6.32
2023-06-11T03:05:24.190Z,6.32
2023-06-11T03:07:52.319Z,6.57
2023-06-11T03:10:21.777Z,6.45
2023-06-11T03:12:49.927Z,6.90
2023-06-11T03:15:18.030Z,6.72
2023-06-11T03:17:46.250Z,6.57
2023-06-11T03:20:14.606Z,6.63
2023-06-11T03:22:42.803Z,6.80
2023-06-11T03:25:11.180Z,6.68
2023-06-11T03:27:40.858Z,6.90
2023-06-11T03:30:09.971Z,7.03
2023-06-11T03:32:38.146Z,7.05
2023-06-11T03:35:06.759Z,6.75
2023-06-11T03:37:34.884Z,7.47
2023-06-11T03:40:03.101Z,6.57
2023-06-11T03:42:31.250Z,6.78
2023-06-11T03:45:00.707Z,6.72
2023-06-11T03:47:28.850Z,6.47
2023-06-11T03:49:57.272Z,7.30
2023-06-11T03:52:25.497Z,6.38
2023-06-11T03:54:53.575Z,6.97
2023-06-11T03:57:21.745Z,6.85
2023-06-11T03:59:49.915Z,7.03
2023-06-11T04:02:19.491Z,6.47
2023-06-11T04:04:47.815Z,6.30
2023-06-11T04:07:15.966Z,5.68
2023-06-11T04:09:44.098Z,6.80
2023-06-11T04:12:13.030Z,6.45
2023-06-11T04:14:41.411Z,6.50
2023-06-11T04:17:10.234Z,6.57
2023-06-11T04:19:40.438Z,6.50
2023-06-11T04:22:09.111Z,5.80
2023-06-11T04:24:37.236Z,6.43
2023-06-11T04:27:08.119Z,5.70
2023-06-11T04:29:36.302Z,6.47
2023-06-11T04:32:04.685Z,6.13
2023-06-11T04:34:36.199Z,5.72
2023-06-11T04:37:06.555Z,6.05
2023-06-11T04:39:34.691Z,5.90
2023-06-11T04:42:03.331Z,6.18
2023-06-11T04:44:33.155Z,6.25
2023-06-11T04:47:02.411Z,6.65
2023-06-11T04:49:30.716Z,6.78
2023-06-11T04:51:59.265Z,6.00
2023-06-11T04:54:29.345Z,6.57
2023-06-11T04:56:57.474Z,6.35
2023-06-11T04:59:25.645Z,6.50
2023-06-11T05:01:55.033Z,6.00
2023-06-11T05:04:23.820Z,6.07
2023-06-11T05:06:53.869Z,6.20
2023-06-11T05:09:21.981Z,6.30
2023-06-11T05:11:51.495Z,6.35
2023-06-11T05:14:19.643Z,6.20
2023-06-11T05:16:47.869Z,6.68
2023-06-11T05:19:16.032Z,5.53
2023-06-11T05:21:44.142Z,6.10
2023-06-11T05:24:20.427Z,5.82
2023-06-11T05:26:49.106Z,5.57
2023-06-11T05:29:18.590Z,6.22
2023-06-11T05:31:46.699Z,6.20
2023-06-11T05:34:14.817Z,5.88
2023-06-11T05:36:43.346Z,6.45
2023-06-11T05:39:11.836Z,5.90
2023-06-11T05:41:39.988Z,5.68
2023-06-11T05:44:08.110Z,5.97
2023-06-11T05:46:37.745Z,5.65
2023-06-11T05:49:06.985Z,5.65
2023-06-11T05:51:35.121Z,5.10
2023-06-11T05:54:04.213Z,5.57
2023-06-11T05:56:32.512Z,5.22
2023-06-11T05:59:00.656Z,6.38
2023-06-11T06:01:29.728Z,5.40
2023-06-11T06:03:59.408Z,5.57
2023-06-11T06:06:27.991Z,5.35
2023-06-11T06:08:56.652Z,5.53
2023-06-11T06:11:24.770Z,5.75
2023-06-11T06:13:52.879Z,5.55
2023-06-11T06:16:21.053Z,5.35
2023-06-11T06:18:49.152Z,6.20
2023-06-11T06:21:18.688Z,5.75
2023-06-11T06:23:46.798Z,5.43
2023-06-11T06:26:14.961Z,5.70
2023-06-11T06:28:43.056Z,5.22
2023-06-11T06:31:13.708Z,5.75
2023-06-11T06:33:41.934Z,5.20
2023-06-11T06:36:10.044Z,5.75
2023-06-11T06:38:39.594Z,5.53
2023-06-11T06:41:07.706Z,6.05
2023-06-11T06:43:36.049Z,5.32
2023-06-11T06:46:04.191Z,5.22
2023-06-11T06:48:33.604Z,5.75
2023-06-11T06:51:02.225Z,5.57
2023-06-11T06:53:30.334Z,5.93
2023-06-11T06:56:01.340Z,5.80
2023-06-11T06:58:29.716Z,5.30
2023-06-11T07:00:58.514Z,4.97
2023-06-11T07:03:26.853Z,5.13
2023-06-11T07:05:55.169Z,5.20
2023-06-11T07:08:23.626Z,5.15
2023-06-11T07:10:54.508Z,5.30
2023-06-11T07:13:24.460Z,5.63
2023-06-11T07:15:53.219Z,5.28
2023-06-11T07:18:21.448Z,5.45
2023-06-11T07:20:50.151Z,5.20
2023-06-11T07:23:20.327Z,5.90
2023-06-11T07:25:51.298Z,5.95
2023-06-11T07:28:19.554Z,5.05
2023-06-11T07:30:49.530Z,5.35
2023-06-11T07:33:18.652Z,5.57
2023-06-11T07:35:50.251Z,4.68
2023-06-11T07:38:18.952Z,5.97
2023-06-11T07:40:47.053Z,5.13
2023-06-11T07:43:15.191Z,5.57
2023-06-11T07:45:44.884Z,5.10
2023-06-11T07:48:14.391Z,5.75
2023-06-11T07:50:42.491Z,5.00
2023-06-11T07:53:13.964Z,5.07
2023-06-11T07:55:42.763Z,5.13
2023-06-11T07:58:10.941Z,4.60
2023-06-11T08:00:39.159Z,5.35
2023-06-11T08:03:07.312Z,4.85
2023-06-11T08:05:37.070Z,4.85
2023-06-11T08:08:06.104Z,4.45
2023-06-11T08:10:34.799Z,4.88
2023-06-11T08:13:02.942Z,4.95
2023-06-11T08:15:31.620Z,4.70
2023-06-11T08:17:59.818Z,5.65
2023-06-11T08:20:28.114Z,5.40
2023-06-11T08:22:57.867Z,4.93
2023-06-11T08:25:25.954Z,4.97
2023-06-11T08:27:54.124Z,4.80
2023-06-11T08:30:22.332Z,5.22
2023-06-11T08:32:50.505Z,5.38
2023-06-11T08:35:18.674Z,4.60
2023-06-11T08:37:47.812Z,4.75
2023-06-11T08:40:17.701Z,4.50
2023-06-11T08:42:48.114Z,4.93
2023-06-11T08:45:16.386Z,4.60
2023-06-11T08:47:50.730Z,5.20
2023-06-11T08:50:22.091Z,4.65
2023-06-11T08:52:53.028Z,4.22
2023-06-11T08:55:22.735Z,5.07
2023-06-11T08:57:52.485Z,4.35
2023-06-11T09:00:22.306Z,4.57
2023-06-11T09:02:50.991Z,4.40
2023-06-11T09:05:19.572Z,4.22
2023-06-11T09:07:51.584Z,4.20
2023-06-11T09:10:20.692Z,3.90
2023-06-11T09:12:50.461Z,4.13
2023-06-11T09:15:19.937Z,3.97
2023-06-11T09:17:48.608Z,4.57
2023-06-11T09:20:17.922Z,3.80
2023-06-11T09:22:46.742Z,3.90
2023-06-11T09:25:18.082Z,4.10
2023-06-11T09:27:47.949Z,4.65
2023-06-11T09:30:19.493Z,3.75
2023-06-11T09:32:49.575Z,3.45
2023-06-11T09:35:21.720Z,4.15
2023-06-11T09:37:53.089Z,4.10
2023-06-11T09:40:24.474Z,3.80
2023-06-11T09:42:53.092Z,3.75
2023-06-11T09:45:24.673Z,3.50
2023-06-11T09:47:53.173Z,3.80
2023-06-11T09:50:22.865Z,3.67
2023-06-11T09:52:53.640Z,3.80
2023-06-11T09:55:27.227Z,3.97
2023-06-11T09:57:56.040Z,3.40
2023-06-11T10:00:25.783Z,3.78
2023-06-11T10:02:53.938Z,3.60
2023-06-11T10:05:22.674Z,4.20
2023-06-11T10:07:55.349Z,4.13
2023-06-11T10:10:26.002Z,4.00
2023-06-11T10:12:55.659Z,3.50
2023-06-11T10:15:26.488Z,3.95
2023-06-11T10:17:55.947Z,4.15
2023-06-11T10:20:29.897Z,3.80
2023-06-11T10:23:08.629Z,4.38
2023-06-11T10:25:38.947Z,3.72
2023-06-11T10:28:07.697Z,4.10
2023-06-11T10:30:37.625Z,4.20
2023-06-11T10:33:05.979Z,4.15
2023-06-11T10:35:34.667Z,4.70
2023-06-11T10:38:07.019Z,4.00
2023-06-11T10:40:36.325Z,3.63
2023-06-11T10:43:06.658Z,4.28
2023-06-11T10:45:38.150Z,4.15
2023-06-11T10:48:07.168Z,4.60
2023-06-11T10:50:36.782Z,4.35
2023-06-11T10:53:10.445Z,3.85
2023-06-11T10:55:44.144Z,4.07
2023-06-11T10:58:20.600Z,3.90
2023-06-11T11:00:53.968Z,3.30
2023-06-11T11:03:25.019Z,3.83
2023-06-11T11:05:53.533Z,3.80
2023-06-11T11:08:24.771Z,4.35
2023-06-11T11:10:57.288Z,3.83
2023-06-11T11:13:25.637Z,3.95
2023-06-11T11:15:55.339Z,4.05
2023-06-11T11:18:24.290Z,4.50
2023-06-11T11:20:54.149Z,4.47
2023-06-11T11:23:22.263Z,4.22
2023-06-11T11:25:53.396Z,4.80
2023-06-11T11:28:21.686Z,4.10
2023-06-11T11:30:51.887Z,4.18
2023-06-11T11:33:22.026Z,4.32
2023-06-11T11:35:52.514Z,3.90
2023-06-11T11:38:21.051Z,3.97
2023-06-11T11:40:56.322Z,3.83
2023-06-11T11:43:24.794Z,3.80
2023-06-11T11:45:52.974Z,3.90
2023-06-11T11:48:22.586Z,3.35
2023-06-11T11:51:07.117Z,4.00
2023-06-11T11:53:35.752Z,3.97
2023-06-11T11:56:07.042Z,3.35
2023-06-11T11:58:39.630Z,3.78
2023-06-11T12:01:10.001Z,4.25
2023-06-11T12:03:39.896Z,4.30
2023-06-11T12:06:09.385Z,4.20
2023-06-11T12:08:38.533Z,3.75
2023-06-11T12:11:08.324Z,4.13
2023-06-11T12:13:37.253Z,4.05
2023-06-11T12:16:05.936Z,3.90
2023-06-11T12:18:34.422Z,4.40
2023-06-11T12:21:04.014Z,3.92
2023-06-11T12:23:32.209Z,3.80
2023-06-11T12:26:01.462Z,3.55
2023-06-11T12:28:29.666Z,4.13
2023-06-11T12:30:58.543Z,3.80
2023-06-11T12:33:26.667Z,3.78
2023-06-11T12:35:54.785Z,3.80
2023-06-11T12:38:24.326Z,3.22
2023-06-11T12:40:53.414Z,3.10
2023-06-11T12:43:22.170Z,3.15
2023-06-11T12:45:50.303Z,3.50
2023-06-11T12:48:18.475Z,3.45
2023-06-11T12:50:46.697Z,3.67
2023-06-11T12:53:14.846Z,3.50
2023-06-11T12:55:44.389Z,3.53
2023-06-11T12:58:12.536Z,3.28
2023-06-11T13:00:40.751Z,3.03
2023-06-11T13:03:09.117Z,3.35
2023-06-11T13:05:37.258Z,3.45
2023-06-11T13:08:06.454Z,3.38
2023-06-11T13:10:34.687Z,4.10
2023-06-11T13:13:04.818Z,3.60
2023-06-11T13:15:33.135Z,2.97
2023-06-11T13:18:01.438Z,3.42
2023-06-11T13:20:30.865Z,3.35
2023-06-11T13:22:59.049Z,3.17
2023-06-11T13:25:27.168Z,3.30
2023-06-11T13:27:55.669Z,3.15
2023-06-11T13:30:25.207Z,3.60
2023-06-11T13:32:53.433Z,3.47
2023-06-11T13:35:21.617Z,3.30
2023-06-11T13:37:49.740Z,3.00
2023-06-11T13:40:19.265Z,2.97
2023-06-11T13:42:47.531Z,3.22
2023-06-11T13:45:15.618Z,3.00
2023-06-11T13:47:45.242Z,3.20
2023-06-11T13:50:13.674Z,2.97
2023-06-11T13:52:42.174Z,3.17
2023-06-11T13:55:11.109Z,2.90
2023-06-11T13:57:39.389Z,3.15
2023-06-11T14:00:09.150Z,3.45
2023-06-11T14:02:37.606Z,3.50
2023-06-11T14:05:07.959Z,3.38
2023-06-11T14:07:36.525Z,2.97
2023-06-11T14:10:06.423Z,3.38
2023-06-11T14:12:34.683Z,3.35
2023-06-11T14:15:02.834Z,3.40
2023-06-11T14:17:31.798Z,3.38
2023-06-11T14:20:00.094Z,2.97
2023-06-11T14:22:29.613Z,3.50
2023-06-11T14:24:57.741Z,3.30
2023-06-11T14:27:25.854Z,3.17
2023-06-11T14:29:54.047Z,2.72
2023-06-11T14:32:22.335Z,2.58
2023-06-11T14:34:50.663Z,3.70
2023-06-11T14:37:18.816Z,3.10
2023-06-11T14:39:48.348Z,2.90
2023-06-11T14:42:16.795Z,2.97
2023-06-11T14:44:44.960Z,3.13
2023-06-11T14:47:13.125Z,3.33
2023-06-11T14:49:41.295Z,3.25
2023-06-11T14:52:10.567Z,3.17
2023-06-11T14:54:39.196Z,2.80
2023-06-11T14:57:16.586Z,3.22
2023-06-11T14:59:45.382Z,3.10
2023-06-11T15:02:15.891Z,3.22
2023-06-11T15:04:44.949Z,2.88
2023-06-11T15:09:46.715Z,3.83
2023-06-11T15:12:16.253Z,3.28
2023-06-11T15:14:44.435Z,3.40
2023-06-11T15:17:12.980Z,3.53
2023-06-11T15:19:43.974Z,3.15
2023-06-11T15:22:12.124Z,3.03
2023-06-11T15:24:40.539Z,3.00
2023-06-11T15:27:08.916Z,2.90
2023-06-11T15:29:38.407Z,3.08
2023-06-11T15:32:09.646Z,2.97
2023-06-11T15:34:37.873Z,2.67
2023-06-11T15:37:06.504Z,2.95
2023-06-11T15:39:34.680Z,2.90
2023-06-11T15:42:03.039Z,2.85
2023-06-11T15:44:32.193Z,3.50
2023-06-11T15:47:01.753Z,2.80
2023-06-11T15:49:29.901Z,2.85
2023-06-11T15:51:58.766Z,2.90
2023-06-11T15:54:26.900Z,2.97
2023-06-11T15:56:55.026Z,2.95
2023-06-11T15:59:23.158Z,2.90
2023-06-11T16:01:51.289Z,3.42
2023-06-11T16:04:21.170Z,3.10
2023-06-11T16:06:49.285Z,2.60
2023-06-11T16:09:17.647Z,3.35
2023-06-11T16:11:45.754Z,2.67
2023-06-11T16:14:16.009Z,3.13
2023-06-11T16:16:44.537Z,3.22
2023-06-11T16:19:12.738Z,2.90
2023-06-11T16:21:42.495Z,2.92
2023-06-11T16:24:10.799Z,2.97
2023-06-11T16:26:39.012Z,2.85
2023-06-11T16:29:07.140Z,3.20
2023-06-11T16:31:35.332Z,2.83
2023-06-11T16:34:04.613Z,2.95
2023-06-11T16:36:32.786Z,3.00
2023-06-11T16:39:21.000Z,2.83
2023-06-11T16:41:51.422Z,2.70
2023-06-11T16:44:19.592Z,2.90
2023-06-11T16:46:47.924Z,2.50
2023-06-11T16:49:16.198Z,2.67
2023-06-11T16:51:44.494Z,2.70
2023-06-11T16:54:17.391Z,2.88
2023-06-11T16:56:46.784Z,3.10
2023-06-11T16:59:14.972Z,3.20
2023-06-11T17:01:43.289Z,2.83
2023-06-11T17:04:11.762Z,2.53
2023-06-11T17:06:40.352Z,2.70
2023-06-11T17:09:08.508Z,2.90
2023-06-11T17:11:38.079Z,2.72
2023-06-11T17:14:06.282Z,2.80
2023-06-11T17:16:34.492Z,2.55
2023-06-11T17:19:04.713Z,2.90
2023-06-11T17:21:33.904Z,2.78
2023-06-11T17:24:02.274Z,2.50
2023-06-11T17:26:30.429Z,3.00
2023-06-11T17:28:59.950Z,2.60
2023-06-11T17:31:28.067Z,2.67
2023-06-11T17:33:56.176Z,2.58
2023-06-11T17:36:24.306Z,2.40
2023-06-11T17:38:52.436Z,2.42
2023-06-11T17:41:20.651Z,2.75
2023-06-11T17:43:49.008Z,2.33
2023-06-11T17:46:18.689Z,2.47
2023-06-11T17:48:47.040Z,2.72
2023-06-11T17:51:15.209Z,3.03
2023-06-11T17:53:43.818Z,2.80
2023-06-11T17:56:12.028Z,2.60
2023-06-11T17:58:42.510Z,2.97
2023-06-11T18:01:10.974Z,2.70
2023-06-11T18:03:40.560Z,3.03
2023-06-11T18:06:08.888Z,3.10
2023-06-11T18:08:37.090Z,2.92
2023-06-11T18:11:05.175Z,3.17
2023-06-11T18:13:33.332Z,2.90
2023-06-11T18:16:01.515Z,3.00
2023-06-11T18:18:30.058Z,3.33
2023-06-11T18:20:59.713Z,3.15
2023-06-11T18:23:27.836Z,3.30
2023-06-11T18:25:56.000Z,3.25
2023-06-11T18:28:26.533Z,3.22
2023-06-11T18:30:56.083Z,2.83
2023-06-11T18:33:24.217Z,2.90
2023-06-11T18:35:57.333Z,3.20
2023-06-11T18:38:26.836Z,3.42
2023-06-11T18:40:55.299Z,3.50
2023-06-11T18:43:23.458Z,3.72
2023-06-11T18:45:51.643Z,2.90
2023-06-11T18:48:19.740Z,4.00
2023-06-11T18:50:47.906Z,3.50
2023-06-11T18:53:16.397Z,3.60
2023-06-11T18:55:45.886Z,3.58
2023-06-11T19:01:06.846Z,3.23
2023-06-11T19:03:39.278Z,3.40
2023-06-11T19:06:08.914Z,3.67
2023-06-11T19:08:37.080Z,3.45
2023-06-11T19:11:06.554Z,3.38
2023-06-11T19:13:34.657Z,3.65
2023-06-11T19:16:02.775Z,3.83
2023-06-11T19:18:30.878Z,3.63
2023-06-11T19:20:59.041Z,3.38
2023-06-11T19:23:28.804Z,3.78
2023-06-11T19:25:57.110Z,3.53
2023-06-11T19:28:26.603Z,3.83
2023-06-11T19:30:54.731Z,3.92
2023-06-11T19:33:22.943Z,3.40
2023-06-11T19:35:51.133Z,3.90
2023-06-11T19:38:19.277Z,3.67
2023-06-11T19:40:47.452Z,3.70
2023-06-11T19:43:15.578Z,4.80
2023-06-11T19:45:45.077Z,3.92
2023-06-11T19:48:13.492Z,3.42
2023-06-11T19:50:41.593Z,3.63
2023-06-11T19:53:09.754Z,3.70
2023-06-11T19:55:37.831Z,3.72
2023-06-11T19:58:06.127Z,3.85
2023-06-11T20:00:34.295Z,3.97
2023-06-11T20:03:03.779Z,3.42
2023-06-11T20:05:33.765Z,3.70
2023-06-11T20:08:02.818Z,3.70
2023-06-11T20:10:36.927Z,3.10
2023-06-11T20:13:05.203Z,3.85
2023-06-11T20:15:33.543Z,4.05
2023-06-11T20:18:03.158Z,3.60
2023-06-11T20:20:31.502Z,3.78
2023-06-11T20:22:59.610Z,3.70
2023-06-11T20:25:28.855Z,3.80
2023-06-11T20:27:57.546Z,3.80
2023-06-11T20:30:25.824Z,3.70
2023-06-11T20:32:54.014Z,3.33
2023-06-11T20:35:23.498Z,3.55
2023-06-11T20:37:51.685Z,3.92
2023-06-11T20:40:19.898Z,3.88
2023-06-11T20:42:48.047Z,3.58
2023-06-11T20:45:16.249Z,3.65
2023-06-11T20:47:44.520Z,3.35
2023-06-11T20:50:12.997Z,4.15
2023-06-11T20:52:42.714Z,3.97
2023-06-11T20:55:11.292Z,3.40
2023-06-11T20:57:39.413Z,3.67
2023-06-11T21:00:10.018Z,4.00
2023-06-11T21:02:38.397Z,3.83
2023-06-11T21:05:06.752Z,3.47
2023-06-11T21:07:34.890Z,3.40
2023-06-11T21:10:04.543Z,3.60
2023-06-11T21:12:32.615Z,4.43
2023-06-11T21:15:00.692Z,3.90
2023-06-11T21:17:28.903Z,3.42
2023-06-11T21:19:57.001Z,3.92
2023-06-11T21:22:25.116Z,3.65
2023-06-11T21:24:53.236Z,3.78
2023-06-11T21:27:22.738Z,3.55
2023-06-11T21:29:50.901Z,3.80
2023-06-11T21:32:19.082Z,3.92
2023-06-11T21:34:47.306Z,3.83
2023-06-11T21:37:15.720Z,3.90
2023-06-11T21:39:43.822Z,3.72
2023-06-11T21:42:11.968Z,3.63
2023-06-11T21:44:41.488Z,3.35
2023-06-11T21:47:11.065Z,4.07
2023-06-11T21:49:39.344Z,4.30
2023-06-11T21:52:09.252Z,4.35
2023-06-11T21:54:37.338Z,3.35
2023-06-11T21:57:06.586Z,4.07
2023-06-11T21:59:34.682Z,3.85
2023-06-11T22:02:04.798Z,3.60
2023-06-11T22:04:33.119Z,4.15
2023-06-11T22:07:01.702Z,4.35
2023-06-11T22:09:30.711Z,3.50
2023-06-11T22:11:59.595Z,3.30
2023-06-11T22:14:28.253Z,3.55
2023-06-11T22:16:58.837Z,3.40
2023-06-11T22:19:29.849Z,3.53
2023-06-11T22:21:58.053Z,3.58
2023-06-11T22:24:26.225Z,3.45
2023-06-11T22:26:54.385Z,3.92
2023-06-11T22:29:22.537Z,4.07
2023-06-11T22:31:50.786Z,3.80
2023-06-11T22:34:18.952Z,3.72
2023-06-11T22:36:48.404Z,3.92
2023-06-11T22:39:16.494Z,3.90
2023-06-11T22:41:44.594Z,3.80
2023-06-11T22:44:12.774Z,3.90
2023-06-11T22:46:40.973Z,3.85
2023-06-11T22:49:10.206Z,4.40
2023-06-11T22:51:38.459Z,3.60
2023-06-11T22:54:09.576Z,3.53
2023-06-11T22:56:37.794Z,3.90
2023-06-11T22:59:07.172Z,3.58
2023-06-11T23:01:37.107Z,4.20
2023-06-11T23:04:05.512Z,3.95
2023-06-11T23:06:33.850Z,3.88
2023-06-11T23:09:01.994Z,3.95
2023-06-11T23:11:31.494Z,3.85
2023-06-11T23:13:59.605Z,4.07
2023-06-11T23:16:28.362Z,3.55
2023-06-11T23:18:57.265Z,4.22
2023-06-11T23:21:25.421Z,3.60
2023-06-11T23:23:53.604Z,4.05
2023-06-11T23:26:22.752Z,4.00
2023-06-11T23:28:52.748Z,3.90
2023-06-11T23:31:21.861Z,3.65
2023-06-11T23:33:50.938Z,3.95
2023-06-11T23:36:19.657Z,3.80
2023-06-11T23:38:49.650Z,3.90
2023-06-11T23:41:17.778Z,4.10
2023-06-11T23:43:46.048Z,4.50
2023-06-11T23:46:15.533Z,3.72
2023-06-11T23:48:43.678Z,4.20
2023-06-11T23:51:12.522Z,4.18
2023-06-11T23:53:40.678Z,4.10
2023-06-11T23:56:08.815Z,4.22
2023-06-11T23:58:36.985Z,4.40
